sensor_id;sensor_type;location;lat;lon;timestamp;pressure;altitude;pressure_sealevel;temperature;humidity
25610;BME280;13479;49.044;8.716;2023-05-11T04:02:35;98862.50;;;12.00;83.73
25610;BME280;13479;49.044;8.716;2023-05-11T04:05:06;98852.72;;;12.01;83.43
25610;BME280;13479;49.044;8.716;2023-05-11T04:07:31;98848.53;;;11.98;83.66
25610;BME280;13479;49.044;8.716;2023-05-11T04:09:57;98846.41;;;12.02;83.95
25610;BME280;13479;49.044;8.716;2023-05-11T04:12:22;98840.66;;;12.07;84.02
25610;BME280;13479;49.044;8.716;2023-05-11T04:14:48;98849.34;;;12.09;83.84
25610;BME280;13479;49.044;8.716;2023-05-11T04:17:13;98850.59;;;12.04;83.88
25610;BME280;13479;49.044;8.716;2023-05-11T04:19:38;98852.28;;;12.05;83.55
25610;BME280;13479;49.044;8.716;2023-05-11T04:22:03;98841.34;;;12.09;83.60
25610;BME280;13479;49.044;8.716;2023-05-11T04:24:28;98852.66;;;12.11;83.83
25610;BME280;13479;49.044;8.716;2023-05-11T04:26:55;98842.44;;;12.16;83.74
25610;BME280;13479;49.044;8.716;2023-05-11T04:29:21;98858.91;;;12.29;83.06
25610;BME280;13479;49.044;8.716;2023-05-11T04:31:46;98856.81;;;12.23;82.88
25610;BME280;13479;49.044;8.716;2023-05-11T04:34:11;98846.88;;;12.25;82.71
25610;BME280;13479;49.044;8.716;2023-05-11T04:36:36;98845.88;;;12.26;83.08
25610;BME280;13479;49.044;8.716;2023-05-11T04:39:02;98838.31;;;12.31;82.83
25610;BME280;13479;49.044;8.716;2023-05-11T04:41:28;98843.63;;;12.31;82.93
25610;BME280;13479;49.044;8.716;2023-05-11T04:43:53;98830.41;;;12.40;82.93
25610;BME280;13479;49.044;8.716;2023-05-11T04:46:19;98842.13;;;12.47;82.56
25610;BME280;13479;49.044;8.716;2023-05-11T04:48:44;98846.34;;;12.49;82.05
25610;BME280;13479;49.044;8.716;2023-05-11T04:51:09;98837.34;;;12.50;82.17
25610;BME280;13479;49.044;8.716;2023-05-11T04:53:34;98840.25;;;12.57;81.44
25610;BME280;13479;49.044;8.716;2023-05-11T04:56:00;98842.09;;;12.57;81.01
25610;BME280;13479;49.044;8.716;2023-05-11T04:58:25;98836.72;;;12.66;81.16
25610;BME280;13479;49.044;8.716;2023-05-11T05:00:50;98834.41;;;12.72;81.05
25610;BME280;13479;49.044;8.716;2023-05-11T05:03:15;98834.66;;;12.78;80.36
25610;BME280;13479;49.044;8.716;2023-05-11T05:05:41;98837.78;;;12.74;80.40
25610;BME280;13479;49.044;8.716;2023-05-11T05:08:06;98845.63;;;12.93;79.51
25610;BME280;13479;49.044;8.716;2023-05-11T05:10:32;98837.91;;;12.90;79.36
25610;BME280;13479;49.044;8.716;2023-05-11T05:12:57;98828.03;;;12.82;79.38
25610;BME280;13479;49.044;8.716;2023-05-11T05:15:22;98814.72;;;12.82;79.17
25610;BME280;13479;49.044;8.716;2023-05-11T05:17:47;98823.59;;;12.91;78.98
25610;BME280;13479;49.044;8.716;2023-05-11T05:20:13;98833.34;;;13.01;78.37
25610;BME280;13479;49.044;8.716;2023-05-11T05:22:38;98816.59;;;12.90;78.37
25610;BME280;13479;49.044;8.716;2023-05-11T05:25:03;98815.31;;;12.94;78.34
25610;BME280;13479;49.044;8.716;2023-05-11T05:27:29;98815.38;;;13.03;78.69
25610;BME280;13479;49.044;8.716;2023-05-11T05:29:54;98829.31;;;13.15;78.09
25610;BME280;13479;49.044;8.716;2023-05-11T05:32:19;98824.50;;;13.18;77.91
25610;BME280;13479;49.044;8.716;2023-05-11T05:34:45;98826.94;;;13.29;77.15
25610;BME280;13479;49.044;8.716;2023-05-11T05:37:13;98826.78;;;13.31;77.15
25610;BME280;13479;49.044;8.716;2023-05-11T05:39:38;98824.06;;;13.41;76.72
25610;BME280;13479;49.044;8.716;2023-05-11T05:42:03;98832.31;;;13.56;76.48
25610;BME280;13479;49.044;8.716;2023-05-11T05:44:29;98826.47;;;13.52;76.36
25610;BME280;13479;49.044;8.716;2023-05-11T05:46:54;98827.88;;;13.65;75.79
25610;BME280;13479;49.044;8.716;2023-05-11T05:49:19;98829.88;;;13.63;75.75
25610;BME280;13479;49.044;8.716;2023-05-11T05:51:45;98823.75;;;13.70;75.54
25610;BME280;13479;49.044;8.716;2023-05-11T05:54:10;98828.34;;;13.86;74.78
25610;BME280;13479;49.044;8.716;2023-05-11T05:56:37;98838.44;;;14.01;74.01
25610;BME280;13479;49.044;8.716;2023-05-11T05:59:03;98818.72;;;14.02;73.79
25610;BME280;13479;49.044;8.716;2023-05-11T06:01:28;98810.41;;;14.05;74.09
25610;BME280;13479;49.044;8.716;2023-05-11T06:03:53;98817.44;;;14.06;73.42
25610;BME280;13479;49.044;8.716;2023-05-11T06:06:20;98829.34;;;14.20;72.62
25610;BME280;13479;49.044;8.716;2023-05-11T06:08:45;98815.75;;;14.05;72.43
25610;BME280;13479;49.044;8.716;2023-05-11T06:11:10;98809.44;;;14.06;72.08
25610;BME280;13479;49.044;8.716;2023-05-11T06:13:36;98799.31;;;14.18;71.85
25610;BME280;13479;49.044;8.716;2023-05-11T06:16:01;98793.81;;;14.28;72.19
25610;BME280;13479;49.044;8.716;2023-05-11T06:18:27;98792.84;;;14.37;71.57
25610;BME280;13479;49.044;8.716;2023-05-11T06:20:52;98818.75;;;14.45;70.38
25610;BME280;13479;49.044;8.716;2023-05-11T06:23:17;98794.88;;;14.35;70.39
25610;BME280;13479;49.044;8.716;2023-05-11T06:25:43;98794.53;;;14.38;70.22
25610;BME280;13479;49.044;8.716;2023-05-11T06:28:08;98798.75;;;14.57;69.48
25610;BME280;13479;49.044;8.716;2023-05-11T06:30:33;98804.28;;;14.64;69.17
25610;BME280;13479;49.044;8.716;2023-05-11T06:32:59;98794.56;;;14.55;69.35
25610;BME280;13479;49.044;8.716;2023-05-11T06:35:24;98788.91;;;14.58;68.97
25610;BME280;13479;49.044;8.716;2023-05-11T06:37:49;98783.94;;;14.71;69.01
25610;BME280;13479;49.044;8.716;2023-05-11T06:40:15;98792.63;;;14.73;68.53
25610;BME280;13479;49.044;8.716;2023-05-11T06:42:41;98787.31;;;14.90;68.03
25610;BME280;13479;49.044;8.716;2023-05-11T06:45:07;98801.19;;;14.85;67.47
25610;BME280;13479;49.044;8.716;2023-05-11T06:47:32;98786.47;;;14.73;68.00
25610;BME280;13479;49.044;8.716;2023-05-11T06:49:57;98769.94;;;14.69;67.77
25610;BME280;13479;49.044;8.716;2023-05-11T06:52:23;98774.91;;;14.72;67.59
25610;BME280;13479;49.044;8.716;2023-05-11T06:54:48;98786.97;;;14.76;67.44
25610;BME280;13479;49.044;8.716;2023-05-11T06:57:13;98770.44;;;14.81;67.64
25610;BME280;13479;49.044;8.716;2023-05-11T06:59:39;98781.44;;;14.86;67.15
25610;BME280;13479;49.044;8.716;2023-05-11T07:02:04;98791.16;;;15.12;66.23
25610;BME280;13479;49.044;8.716;2023-05-11T07:04:30;98798.16;;;15.21;66.11
25610;BME280;13479;49.044;8.716;2023-05-11T07:06:55;98812.34;;;15.38;65.26
25610;BME280;13479;49.044;8.716;2023-05-11T07:09:20;98789.47;;;15.36;65.59
25610;BME280;13479;49.044;8.716;2023-05-11T07:11:46;98784.28;;;15.42;65.53
25610;BME280;13479;49.044;8.716;2023-05-11T07:14:11;98787.28;;;15.39;64.90
25610;BME280;13479;49.044;8.716;2023-05-11T07:16:36;98801.84;;;15.53;64.90
25610;BME280;13479;49.044;8.716;2023-05-11T07:19:05;98819.53;;;15.63;64.00
25610;BME280;13479;49.044;8.716;2023-05-11T07:21:33;98794.09;;;15.67;64.03
25610;BME280;13479;49.044;8.716;2023-05-11T07:23:58;98785.53;;;15.71;63.82
25610;BME280;13479;49.044;8.716;2023-05-11T07:26:23;98796.91;;;15.73;63.63
25610;BME280;13479;49.044;8.716;2023-05-11T07:28:49;98786.41;;;15.72;63.74
25610;BME280;13479;49.044;8.716;2023-05-11T07:31:14;98776.72;;;15.63;64.07
25610;BME280;13479;49.044;8.716;2023-05-11T07:33:39;98788.88;;;15.82;63.52
25610;BME280;13479;49.044;8.716;2023-05-11T07:36:05;98790.22;;;15.78;63.29
25610;BME280;13479;49.044;8.716;2023-05-11T07:38:31;98787.56;;;15.78;63.76
25610;BME280;13479;49.044;8.716;2023-05-11T07:40:56;98777.38;;;15.73;63.17
25610;BME280;13479;49.044;8.716;2023-05-11T07:43:21;98789.72;;;15.82;63.33
25610;BME280;13479;49.044;8.716;2023-05-11T07:45:47;98796.06;;;15.81;62.84
25610;BME280;13479;49.044;8.716;2023-05-11T07:48:12;98778.56;;;15.70;63.45
25610;BME280;13479;49.044;8.716;2023-05-11T07:50:37;98789.38;;;15.77;63.07
25610;BME280;13479;49.044;8.716;2023-05-11T07:53:02;98774.72;;;15.65;63.59
25610;BME280;13479;49.044;8.716;2023-05-11T07:55:28;98811.03;;;15.59;63.04
25610;BME280;13479;49.044;8.716;2023-05-11T07:57:54;98769.22;;;15.41;63.73
25610;BME280;13479;49.044;8.716;2023-05-11T08:00:20;98748.81;;;15.49;63.65
25610;BME280;13479;49.044;8.716;2023-05-11T08:02:46;98785.59;;;15.55;62.93
25610;BME280;13479;49.044;8.716;2023-05-11T08:05:11;98780.78;;;15.42;63.68
25610;BME280;13479;49.044;8.716;2023-05-11T08:07:36;98762.22;;;15.32;63.76
25610;BME280;13479;49.044;8.716;2023-05-11T08:10:02;98736.97;;;15.35;64.08
25610;BME280;13479;49.044;8.716;2023-05-11T08:12:27;98712.22;;;15.33;64.41
25610;BME280;13479;49.044;8.716;2023-05-11T08:14:52;98700.38;;;15.35;64.83
25610;BME280;13479;49.044;8.716;2023-05-11T08:17:18;98724.72;;;15.49;63.77
25610;BME280;13479;49.044;8.716;2023-05-11T08:19:43;98766.19;;;15.53;63.31
25610;BME280;13479;49.044;8.716;2023-05-11T08:22:08;98765.88;;;15.56;63.58
25610;BME280;13479;49.044;8.716;2023-05-11T08:24:33;98769.03;;;15.59;63.77
25610;BME280;13479;49.044;8.716;2023-05-11T08:26:59;98738.25;;;15.55;64.71
25610;BME280;13479;49.044;8.716;2023-05-11T08:29:24;98713.00;;;15.66;64.54
25610;BME280;13479;49.044;8.716;2023-05-11T08:31:52;98741.00;;;15.95;63.77
25610;BME280;13479;49.044;8.716;2023-05-11T08:34:18;98797.03;;;16.05;63.19
25610;BME280;13479;49.044;8.716;2023-05-11T08:36:43;98819.91;;;16.16;62.83
25610;BME280;13479;49.044;8.716;2023-05-11T08:39:09;98821.09;;;16.13;62.80
25610;BME280;13479;49.044;8.716;2023-05-11T08:41:34;98812.53;;;16.18;62.91
25610;BME280;13479;49.044;8.716;2023-05-11T08:44:00;98816.00;;;16.27;62.82
25610;BME280;13479;49.044;8.716;2023-05-11T08:46:28;98832.91;;;16.27;62.29
25610;BME280;13479;49.044;8.716;2023-05-11T08:48:54;98832.75;;;16.29;61.87
25610;BME280;13479;49.044;8.716;2023-05-11T08:51:21;98823.53;;;16.31;62.12
25610;BME280;13479;49.044;8.716;2023-05-11T08:53:46;98834.19;;;16.48;61.25
25610;BME280;13479;49.044;8.716;2023-05-11T08:56:12;98836.47;;;16.59;60.82
25610;BME280;13479;49.044;8.716;2023-05-11T08:58:38;98836.16;;;16.54;60.54
25610;BME280;13479;49.044;8.716;2023-05-11T09:01:04;98787.69;;;16.32;62.04
25610;BME280;13479;49.044;8.716;2023-05-11T09:03:33;98767.75;;;16.35;61.70
25610;BME280;13479;49.044;8.716;2023-05-11T09:06:01;98762.59;;;16.33;61.92
25610;BME280;13479;49.044;8.716;2023-05-11T09:08:28;98753.22;;;16.29;62.07
25610;BME280;13479;49.044;8.716;2023-05-11T09:10:54;98702.50;;;16.28;63.51
25610;BME280;13479;49.044;8.716;2023-05-11T09:13:19;98701.50;;;16.52;62.59
25610;BME280;13479;49.044;8.716;2023-05-11T09:15:45;98739.47;;;16.64;61.98
25610;BME280;13479;49.044;8.716;2023-05-11T09:18:10;98764.28;;;16.81;62.06
25610;BME280;13479;49.044;8.716;2023-05-11T09:20:41;98796.81;;;17.01;61.49
25610;BME280;13479;49.044;8.716;2023-05-11T09:23:07;98865.59;;;17.40;59.44
25610;BME280;13479;49.044;8.716;2023-05-11T09:25:32;98844.13;;;17.40;59.16
25610;BME280;13479;49.044;8.716;2023-05-11T09:27:59;98850.31;;;17.64;58.19
25610;BME280;13479;49.044;8.716;2023-05-11T09:30:24;98855.50;;;17.81;57.36
25610;BME280;13479;49.044;8.716;2023-05-11T09:32:52;98844.50;;;17.90;57.29
25610;BME280;13479;49.044;8.716;2023-05-11T09:35:23;98841.72;;;17.84;57.06
25610;BME280;13479;49.044;8.716;2023-05-11T09:38:08;98809.28;;;17.85;57.50
25610;BME280;13479;49.044;8.716;2023-05-11T09:40:38;98827.47;;;17.83;57.48
25610;BME280;13479;49.044;8.716;2023-05-11T09:45:44;98782.84;;;18.12;58.09
25610;BME280;13479;49.044;8.716;2023-05-11T09:48:24;98841.75;;;18.29;56.67
25610;BME280;13479;49.044;8.716;2023-05-11T09:50:57;98830.53;;;18.25;56.62
25610;BME280;13479;49.044;8.716;2023-05-11T09:53:39;98827.00;;;18.40;56.18
25610;BME280;13479;49.044;8.716;2023-05-11T09:56:07;98826.53;;;18.36;56.12
25610;BME280;13479;49.044;8.716;2023-05-11T09:58:50;98820.88;;;18.31;56.33
25610;BME280;13479;49.044;8.716;2023-05-11T10:01:17;98830.25;;;18.35;55.89
25610;BME280;13479;49.044;8.716;2023-05-11T10:03:50;98819.88;;;18.32;55.95
25610;BME280;13479;49.044;8.716;2023-05-11T10:06:17;98813.84;;;18.30;55.99
25610;BME280;13479;49.044;8.716;2023-05-11T10:08:42;98838.59;;;18.40;55.38
25610;BME280;13479;49.044;8.716;2023-05-11T10:11:07;98842.38;;;18.46;55.14
25610;BME280;13479;49.044;8.716;2023-05-11T10:13:34;98845.84;;;18.61;54.56
25610;BME280;13479;49.044;8.716;2023-05-11T10:16:02;98824.19;;;18.63;55.19
25610;BME280;13479;49.044;8.716;2023-05-11T10:18:30;98845.28;;;18.66;54.53
25610;BME280;13479;49.044;8.716;2023-05-11T10:20:56;98838.59;;;18.77;54.22
25610;BME280;13479;49.044;8.716;2023-05-11T10:23:23;98846.16;;;18.88;53.05
25610;BME280;13479;49.044;8.716;2023-05-11T10:25:49;98845.94;;;18.68;53.29
25610;BME280;13479;49.044;8.716;2023-05-11T10:28:15;98834.84;;;18.93;53.03
25610;BME280;13479;49.044;8.716;2023-05-11T10:30:41;98850.06;;;19.01;52.61
25610;BME280;13479;49.044;8.716;2023-05-11T10:33:07;98831.16;;;18.94;52.65
25610;BME280;13479;49.044;8.716;2023-05-11T10:35:36;98833.53;;;18.89;52.60
25610;BME280;13479;49.044;8.716;2023-05-11T10:38:02;98798.34;;;18.83;53.55
25610;BME280;13479;49.044;8.716;2023-05-11T10:40:27;98770.22;;;18.64;53.84
25610;BME280;13479;49.044;8.716;2023-05-11T10:44:09;98733.91;;;18.75;54.13
25610;BME280;13479;49.044;8.716;2023-05-11T10:52:09;98738.38;;;19.11;54.31
25610;BME280;13479;49.044;8.716;2023-05-11T10:54:48;98728.59;;;19.32;54.00
25610;BME280;13479;49.044;8.716;2023-05-11T11:02:36;98816.66;;;19.38;53.26
25610;BME280;13479;49.044;8.716;2023-05-11T11:05:02;98823.06;;;19.37;52.97
25610;BME280;13479;49.044;8.716;2023-05-11T11:10:34;98780.00;;;19.37;53.65
25610;BME280;13479;49.044;8.716;2023-05-11T11:18:20;98817.47;;;19.67;52.96
25610;BME280;13479;49.044;8.716;2023-05-11T11:20:50;98807.69;;;19.88;53.01
25610;BME280;13479;49.044;8.716;2023-05-11T11:23:47;98845.31;;;19.74;51.59
25610;BME280;13479;49.044;8.716;2023-05-11T11:26:15;98816.28;;;19.76;52.19
25610;BME280;13479;49.044;8.716;2023-05-11T11:31:30;98788.66;;;19.89;52.15
25610;BME280;13479;49.044;8.716;2023-05-11T11:33:57;98770.88;;;19.95;52.17
25610;BME280;13479;49.044;8.716;2023-05-11T11:42:12;98814.25;;;20.14;50.37
25610;BME280;13479;49.044;8.716;2023-05-11T11:44:39;98824.16;;;20.42;49.60
25610;BME280;13479;49.044;8.716;2023-05-11T11:47:21;98848.91;;;20.65;47.53
25610;BME280;13479;49.044;8.716;2023-05-11T11:49:52;98830.69;;;20.74;48.40
25610;BME280;13479;49.044;8.716;2023-05-11T11:54:53;98847.72;;;20.75;47.02
25610;BME280;13479;49.044;8.716;2023-05-11T11:59:56;98811.44;;;20.91;47.62
25610;BME280;13479;49.044;8.716;2023-05-11T12:02:23;98821.81;;;20.80;47.57
25610;BME280;13479;49.044;8.716;2023-05-11T12:05:09;98832.22;;;21.10;46.95
25610;BME280;13479;49.044;8.716;2023-05-11T12:07:40;98839.69;;;21.08;46.43
25610;BME280;13479;49.044;8.716;2023-05-11T12:10:06;98840.97;;;21.12;46.37
25610;BME280;13479;49.044;8.716;2023-05-11T12:12:32;98825.59;;;21.26;46.54
25610;BME280;13479;49.044;8.716;2023-05-11T12:14:57;98854.03;;;21.29;45.16
25610;BME280;13479;49.044;8.716;2023-05-11T12:17:28;98842.81;;;21.19;45.36
25610;BME280;13479;49.044;8.716;2023-05-11T12:19:54;98831.78;;;20.87;45.44
25610;BME280;13479;49.044;8.716;2023-05-11T12:22:24;98850.47;;;21.02;45.02
25610;BME280;13479;49.044;8.716;2023-05-11T12:24:50;98812.22;;;20.71;46.23
25610;BME280;13479;49.044;8.716;2023-05-11T12:27:19;98800.25;;;20.87;46.05
25610;BME280;13479;49.044;8.716;2023-05-11T12:29:50;98802.75;;;20.95;45.42
25610;BME280;13479;49.044;8.716;2023-05-11T12:32:29;98833.47;;;21.01;44.92
25610;BME280;13479;49.044;8.716;2023-05-11T12:35:02;98798.16;;;20.82;45.96
25610;BME280;13479;49.044;8.716;2023-05-11T12:37:31;98746.28;;;21.01;46.84
25610;BME280;13479;49.044;8.716;2023-05-11T12:39:57;98765.41;;;21.19;45.71
25610;BME280;13479;49.044;8.716;2023-05-11T12:42:23;98782.81;;;20.96;46.04
25610;BME280;13479;49.044;8.716;2023-05-11T12:44:48;98771.38;;;21.35;45.93
25610;BME280;13479;49.044;8.716;2023-05-11T12:47:14;98794.06;;;21.60;45.52
25610;BME280;13479;49.044;8.716;2023-05-11T12:49:41;98810.25;;;21.74;45.06
25610;BME280;13479;49.044;8.716;2023-05-11T12:52:07;98824.78;;;21.73;44.45
25610;BME280;13479;49.044;8.716;2023-05-11T12:54:35;98839.75;;;21.75;43.43
25610;BME280;13479;49.044;8.716;2023-05-11T12:57:20;98822.94;;;21.67;43.88
25610;BME280;13479;49.044;8.716;2023-05-11T12:59:45;98814.59;;;21.55;43.59
25610;BME280;13479;49.044;8.716;2023-05-11T13:02:17;98814.38;;;21.56;43.23
25610;BME280;13479;49.044;8.716;2023-05-11T13:04:44;98803.59;;;21.50;42.80
25610;BME280;13479;49.044;8.716;2023-05-11T13:07:11;98810.22;;;21.40;42.37
25610;BME280;13479;49.044;8.716;2023-05-11T13:09:38;98790.91;;;21.30;42.78
25610;BME280;13479;49.044;8.716;2023-05-11T13:12:17;98745.22;;;21.42;43.35
25610;BME280;13479;49.044;8.716;2023-05-11T13:14:44;98735.44;;;21.54;43.61
25610;BME280;13479;49.044;8.716;2023-05-11T13:17:10;98742.31;;;21.64;43.00
25610;BME280;13479;49.044;8.716;2023-05-11T13:19:35;98764.50;;;21.79;43.21
25610;BME280;13479;49.044;8.716;2023-05-11T13:22:03;98781.50;;;22.00;42.59
25610;BME280;13479;49.044;8.716;2023-05-11T13:24:29;98793.97;;;22.01;41.87
25610;BME280;13479;49.044;8.716;2023-05-11T13:26:56;98802.69;;;22.03;41.38
25610;BME280;13479;49.044;8.716;2023-05-11T13:29:21;98781.94;;;21.83;42.18
25610;BME280;13479;49.044;8.716;2023-05-11T13:31:49;98776.97;;;21.73;42.32
25610;BME280;13479;49.044;8.716;2023-05-11T13:34:15;98779.88;;;21.58;41.91
25610;BME280;13479;49.044;8.716;2023-05-11T13:36:41;98786.34;;;21.71;41.02
25610;BME280;13479;49.044;8.716;2023-05-11T13:39:06;98771.78;;;21.58;41.98
25610;BME280;13479;49.044;8.716;2023-05-11T13:41:32;98716.56;;;21.54;43.31
25610;BME280;13479;49.044;8.716;2023-05-11T13:43:57;98690.97;;;21.70;43.12
25610;BME280;13479;49.044;8.716;2023-05-11T13:46:22;98700.28;;;21.81;42.35
25610;BME280;13479;49.044;8.716;2023-05-11T13:48:48;98753.66;;;21.93;41.53
25610;BME280;13479;49.044;8.716;2023-05-11T13:51:13;98761.38;;;21.75;41.95
25610;BME280;13479;49.044;8.716;2023-05-11T13:53:38;98759.16;;;21.66;41.85
25610;BME280;13479;49.044;8.716;2023-05-11T13:56:04;98765.78;;;21.70;42.25
25610;BME280;13479;49.044;8.716;2023-05-11T13:58:29;98751.69;;;21.61;42.19
25610;BME280;13479;49.044;8.716;2023-05-11T14:00:55;98731.72;;;21.49;42.38
25610;BME280;13479;49.044;8.716;2023-05-11T14:03:20;98733.78;;;21.53;42.10
25610;BME280;13479;49.044;8.716;2023-05-11T14:05:47;98738.34;;;21.39;42.51
25610;BME280;13479;49.044;8.716;2023-05-11T14:08:13;98751.66;;;21.48;41.34
25610;BME280;13479;49.044;8.716;2023-05-11T14:10:38;98764.13;;;21.55;41.13
25610;BME280;13479;49.044;8.716;2023-05-11T14:13:03;98735.25;;;21.36;42.45
25610;BME280;13479;49.044;8.716;2023-05-11T14:15:31;98712.81;;;21.55;42.25
25610;BME280;13479;49.044;8.716;2023-05-11T14:17:56;98737.31;;;21.47;41.76
25610;BME280;13479;49.044;8.716;2023-05-11T14:20:21;98747.09;;;21.35;41.16
25610;BME280;13479;49.044;8.716;2023-05-11T14:22:46;98750.81;;;21.34;40.95
25610;BME280;13479;49.044;8.716;2023-05-11T14:25:12;98740.47;;;21.37;41.47
25610;BME280;13479;49.044;8.716;2023-05-11T14:27:37;98741.25;;;21.51;41.26
25610;BME280;13479;49.044;8.716;2023-05-11T14:30:02;98747.69;;;21.50;41.00
25610;BME280;13479;49.044;8.716;2023-05-11T14:32:28;98756.84;;;21.49;40.36
25610;BME280;13479;49.044;8.716;2023-05-11T14:34:53;98752.47;;;21.41;40.38
25610;BME280;13479;49.044;8.716;2023-05-11T14:37:18;98751.22;;;21.51;39.85
25610;BME280;13479;49.044;8.716;2023-05-11T14:39:44;98748.75;;;21.56;39.92
25610;BME280;13479;49.044;8.716;2023-05-11T14:42:09;98763.06;;;21.56;39.34
25610;BME280;13479;49.044;8.716;2023-05-11T14:44:34;98755.41;;;21.26;40.08
25610;BME280;13479;49.044;8.716;2023-05-11T14:47:00;98750.03;;;21.00;40.13
25610;BME280;13479;49.044;8.716;2023-05-11T14:49:26;98744.19;;;21.03;39.94
25610;BME280;13479;49.044;8.716;2023-05-11T14:51:51;98729.66;;;20.90;40.13
25610;BME280;13479;49.044;8.716;2023-05-11T14:54:17;98707.25;;;20.83;40.66
25610;BME280;13479;49.044;8.716;2023-05-11T14:56:42;98675.91;;;20.89;40.92
25610;BME280;13479;49.044;8.716;2023-05-11T14:59:07;98676.16;;;20.94;40.92
25610;BME280;13479;49.044;8.716;2023-05-11T15:01:32;98652.06;;;20.99;41.21
25610;BME280;13479;49.044;8.716;2023-05-11T15:03:58;98633.16;;;21.06;42.10
25610;BME280;13479;49.044;8.716;2023-05-11T15:06:23;98694.59;;;21.10;39.82
25610;BME280;13479;49.044;8.716;2023-05-11T15:08:49;98717.66;;;20.93;39.92
25610;BME280;13479;49.044;8.716;2023-05-11T15:11:15;98732.97;;;20.79;40.15
25610;BME280;13479;49.044;8.716;2023-05-11T15:13:40;98729.41;;;20.72;39.89
25610;BME280;13479;49.044;8.716;2023-05-11T15:16:06;98723.19;;;20.58;40.73
25610;BME280;13479;49.044;8.716;2023-05-11T15:18:31;98692.25;;;20.53;41.13
25610;BME280;13479;49.044;8.716;2023-05-11T15:20:56;98654.28;;;20.35;42.70
25610;BME280;13479;49.044;8.716;2023-05-11T15:23:22;98648.69;;;20.36;41.58
25610;BME280;13479;49.044;8.716;2023-05-11T15:25:47;98647.25;;;20.41;41.50
25610;BME280;13479;49.044;8.716;2023-05-11T15:28:13;98649.94;;;20.61;41.57
25610;BME280;13479;49.044;8.716;2023-05-11T15:30:38;98630.03;;;20.42;41.83
25610;BME280;13479;49.044;8.716;2023-05-11T15:33:05;98608.66;;;20.53;42.40
25610;BME280;13479;49.044;8.716;2023-05-11T15:35:33;98615.50;;;20.56;42.35
25610;BME280;13479;49.044;8.716;2023-05-11T15:37:58;98629.19;;;20.48;42.16
25610;BME280;13479;49.044;8.716;2023-05-11T15:40:24;98617.53;;;20.14;42.84
25610;BME280;13479;49.044;8.716;2023-05-11T15:42:49;98617.50;;;20.00;43.00
25610;BME280;13479;49.044;8.716;2023-05-11T15:45:14;98592.75;;;19.76;43.81
25610;BME280;13479;49.044;8.716;2023-05-11T15:47:40;98582.56;;;19.65;44.40
25610;BME280;13479;49.044;8.716;2023-05-11T15:50:06;98571.41;;;19.68;45.05
25610;BME280;13479;49.044;8.716;2023-05-11T15:52:31;98577.31;;;19.92;44.77
25610;BME280;13479;49.044;8.716;2023-05-11T15:54:56;98582.84;;;19.84;44.45
25610;BME280;13479;49.044;8.716;2023-05-11T15:57:22;98603.34;;;19.78;44.17
25610;BME280;13479;49.044;8.716;2023-05-11T15:59:47;98592.09;;;19.61;44.48
25610;BME280;13479;49.044;8.716;2023-05-11T16:02:12;98599.38;;;19.25;44.71
25610;BME280;13479;49.044;8.716;2023-05-11T16:04:37;98563.69;;;19.03;46.05
25610;BME280;13479;49.044;8.716;2023-05-11T16:07:03;98552.25;;;18.94;46.26
25610;BME280;13479;49.044;8.716;2023-05-11T16:09:28;98556.22;;;18.98;46.49
25610;BME280;13479;49.044;8.716;2023-05-11T16:11:54;98549.97;;;18.98;46.72
25610;BME280;13479;49.044;8.716;2023-05-11T16:14:19;98562.09;;;19.16;46.01
25610;BME280;13479;49.044;8.716;2023-05-11T16:16:44;98580.22;;;19.00;46.33
25610;BME280;13479;49.044;8.716;2023-05-11T16:19:10;98568.94;;;18.90;46.43
25610;BME280;13479;49.044;8.716;2023-05-11T16:21:35;98561.03;;;18.81;46.74
25610;BME280;13479;49.044;8.716;2023-05-11T16:24:01;98547.25;;;18.91;47.43
25610;BME280;13479;49.044;8.716;2023-05-11T16:26:26;98575.13;;;19.12;46.25
25610;BME280;13479;49.044;8.716;2023-05-11T16:28:52;98585.09;;;18.90;46.86
25610;BME280;13479;49.044;8.716;2023-05-11T16:31:18;98585.69;;;18.85;46.62
25610;BME280;13479;49.044;8.716;2023-05-11T16:33:43;98569.00;;;18.68;47.15
25610;BME280;13479;49.044;8.716;2023-05-11T16:36:08;98540.28;;;18.68;47.45
25610;BME280;13479;49.044;8.716;2023-05-11T16:38:34;98558.16;;;18.83;46.69
25610;BME280;13479;49.044;8.716;2023-05-11T16:41:00;98574.28;;;18.83;46.39
25610;BME280;13479;49.044;8.716;2023-05-11T16:43:25;98570.28;;;18.72;47.02
25610;BME280;13479;49.044;8.716;2023-05-11T16:45:50;98543.41;;;18.72;47.51
25610;BME280;13479;49.044;8.716;2023-05-11T16:48:16;98541.97;;;18.76;47.70
25610;BME280;13479;49.044;8.716;2023-05-11T16:50:42;98543.63;;;18.77;47.39
25610;BME280;13479;49.044;8.716;2023-05-11T16:53:07;98540.47;;;18.67;47.77
25610;BME280;13479;49.044;8.716;2023-05-11T16:55:33;98539.22;;;18.63;48.15
25610;BME280;13479;49.044;8.716;2023-05-11T16:57:58;98538.38;;;18.62;48.08
25610;BME280;13479;49.044;8.716;2023-05-11T17:00:23;98551.69;;;18.49;48.42
25610;BME280;13479;49.044;8.716;2023-05-11T17:02:49;98538.31;;;18.27;48.83
25610;BME280;13479;49.044;8.716;2023-05-11T17:05:14;98533.22;;;18.11;49.62
25610;BME280;13479;49.044;8.716;2023-05-11T17:07:42;98535.69;;;17.90;50.17
25610;BME280;13479;49.044;8.716;2023-05-11T17:10:10;98529.66;;;17.67;50.63
25610;BME280;13479;49.044;8.716;2023-05-11T17:12:35;98527.31;;;17.42;51.57
25610;BME280;13479;49.044;8.716;2023-05-11T17:15:01;98533.94;;;17.24;51.63
25610;BME280;13479;49.044;8.716;2023-05-11T17:17:27;98525.91;;;17.09;52.27
25610;BME280;13479;49.044;8.716;2023-05-11T17:19:52;98521.91;;;16.90;52.45
25610;BME280;13479;49.044;8.716;2023-05-11T17:22:18;98516.81;;;16.80;53.04
25610;BME280;13479;49.044;8.716;2023-05-11T17:24:44;98518.41;;;16.75;53.43
25610;BME280;13479;49.044;8.716;2023-05-11T17:27:09;98516.28;;;16.55;54.14
25610;BME280;13479;49.044;8.716;2023-05-11T17:29:34;98542.91;;;16.72;53.87
25610;BME280;13479;49.044;8.716;2023-05-11T17:31:59;98528.19;;;16.52;54.28
25610;BME280;13479;49.044;8.716;2023-05-11T17:34:25;98533.00;;;16.57;54.12